Time;durP1;ratioP1;P1;durP2;ratioP2;P2;SDS_P1;SDS_P2;PMS_P1;PMS_P2;Temp;Humidity;BMP_temperature;BMP_pressure;BME280_temperature;BME280_humidity;BME280_pressure;Samples;Min_cycle;Max_cycle;Signal;HPM_P1;HPM_P2
2021/05/16 00:57:56;;;;;;;898.67;37.10;;;6.70;99.90;;;;;;6269162;22;20394;-96
2021/05/16 01:01:07;;;;;;;1601.73;70.80;;;6.70;99.90;;;;;;6280086;22;20360;-96
2021/05/16 01:03:54;;;;;;;1996.93;81.00;;;6.70;99.90;;;;;;6221068;22;20449;-96
2021/05/16 01:07:01;;;;;;;635.17;37.17;;;6.70;99.90;;;;;;6177629;23;20417;-96
2021/05/16 01:10:17;;;;;;;1150.68;48.72;;;6.70;99.90;;;;;;6230053;23;20463;-96
2021/05/16 01:12:55;;;;;;;1487.15;93.65;;;6.60;99.90;;;;;;6206643;23;20430;-96
2021/05/16 01:18:48;;;;;;;20.77;14.00;;;6.50;99.90;;;;;;6318073;22;20431;-96
2021/05/16 01:21:56;;;;;;;20.50;13.77;;;6.50;99.90;;;;;;6238818;22;20464;-96
2021/05/16 01:24:54;;;;;;;22.70;15.07;;;6.40;99.90;;;;;;6270249;22;20844;-96
2021/05/16 01:28:39;;;;;;;;;;;;;;;;;;;;;
2021/05/16 01:37:43;;;;;;;21.05;13.90;;;6.40;99.90;;;;;;6231023;22;20377;-95
2021/05/16 01:43:30;;;;;;;20.03;13.93;;;6.30;99.90;;;;;;6280049;22;20394;-95
2021/05/16 01:49:22;;;;;;;18.52;12.85;;;6.40;99.90;;;;;;6260683;23;20828;-96
2021/05/16 01:52:54;;;;;;;21.17;15.65;;;6.40;99.90;;;;;;6242115;23;20390;-96
2021/05/16 01:57:46;;;;;;;21.95;15.43;;;6.30;99.90;;;;;;6300851;22;20398;-96
2021/05/16 02:00:47;;;;;;;19.92;13.48;;;6.30;99.90;;;;;;6238828;23;20373;-96
2021/05/16 02:03:48;;;;;;;22.02;15.38;;;6.30;99.90;;;;;;6215904;23;20779;-96
2021/05/16 02:06:37;;;;;;;18.85;13.57;;;6.30;99.90;;;;;;6233934;23;20459;-95
2021/05/16 02:09:31;;;;;;;17.42;12.25;;;6.30;99.90;;;;;;6232908;23;20393;-96
2021/05/16 02:12:00;;;;;;;14.10;9.32;;;6.20;99.90;;;;;;6287407;22;20376;-96
2021/05/16 02:14:38;;;;;;;9.00;7.30;;;6.10;99.90;;;;;;6284064;22;20370;-95
2021/05/16 02:17:14;;;;;;;9.95;6.00;;;6.00;99.90;;;;;;6285262;22;20745;-96
2021/05/16 02:20:01;;;;;;;9.00;6.63;;;6.00;99.90;;;;;;6284121;22;20388;-95
2021/05/16 02:23:30;;;;;;;8.95;6.47;;;6.00;99.90;;;;;;6217576;22;20744;-96
2021/05/16 02:26:14;;;;;;;7.93;5.83;;;5.90;99.90;;;;;;6282846;22;20376;-95
2021/05/16 02:28:48;;;;;;;6.60;5.60;;;5.90;99.90;;;;;;6286096;22;20841;-96
2021/05/16 02:31:20;;;;;;;7.25;5.95;;;5.80;99.90;;;;;;6305459;22;20360;-96
2021/05/16 02:34:38;;;;;;;7.82;6.20;;;5.90;99.90;;;;;;6316208;22;20394;-95
2021/05/16 02:37:26;;;;;;;8.25;5.97;;;5.80;99.90;;;;;;6171414;23;20440;-95
2021/05/16 02:40:24;;;;;;;8.50;6.13;;;5.80;99.90;;;;;;6210832;23;20373;-96
2021/05/16 02:42:56;;;;;;;8.43;6.82;;;5.80;99.90;;;;;;6232148;23;20413;-96
2021/05/16 02:45:31;;;;;;;9.98;7.25;;;5.90;99.90;;;;;;6230316;23;20373;-95
2021/05/16 02:48:12;;;;;;;13.05;8.93;;;5.80;99.90;;;;;;6232746;23;20444;-95
2021/05/16 02:50:46;;;;;;;13.85;10.70;;;5.90;99.90;;;;;;6227857;23;20382;-96
2021/05/16 02:53:30;;;;;;;14.20;11.23;;;5.90;99.90;;;;;;6256885;23;20404;-96
2021/05/16 02:56:12;;;;;;;14.13;10.57;;;5.90;99.90;;;;;;6227631;23;20382;-96
2021/05/16 02:59:05;;;;;;;13.90;9.77;;;5.80;99.90;;;;;;6231412;23;20396;-96
2021/05/16 03:01:52;;;;;;;12.63;9.80;;;5.90;99.90;;;;;;6232162;23;20448;-95
2021/05/16 03:04:20;;;;;;;13.77;11.18;;;5.80;99.90;;;;;;6224635;23;20473;-95
2021/05/16 03:06:53;;;;;;;14.27;11.40;;;5.80;99.90;;;;;;6254624;23;20432;-95
2021/05/16 03:09:21;;;;;;;16.20;11.85;;;5.90;99.90;;;;;;6228759;23;20924;-95
2021/05/16 03:11:54;;;;;;;22.43;14.23;;;5.90;99.90;;;;;;6228453;23;20441;-96
2021/05/16 03:14:44;;;;;;;20.30;14.15;;;5.80;99.90;;;;;;6284296;22;20390;-96
2021/05/16 03:17:35;;;;;;;20.00;13.88;;;5.80;99.90;;;;;;6222624;23;20407;-95
2021/05/16 03:20:25;;;;;;;19.83;14.73;;;5.80;99.90;;;;;;6170051;23;20954;-96
2021/05/16 03:23:08;;;;;;;19.40;14.80;;;5.70;99.90;;;;;;6170100;23;20430;-95
2021/05/16 03:26:06;;;;;;;18.63;13.25;;;5.70;99.90;;;;;;6131201;23;20440;-96
2021/05/16 03:28:35;;;;;;;19.67;14.48;;;5.70;99.90;;;;;;6150873;23;20728;-95
2021/05/16 03:31:14;;;;;;;17.27;14.07;;;5.70;99.90;;;;;;6170510;23;20399;-95
2021/05/16 03:34:00;;;;;;;18.45;14.50;;;5.70;99.90;;;;;;6169268;23;20860;-96
2021/05/16 03:36:29;;;;;;;16.42;10.57;;;5.70;99.90;;;;;;6171717;23;20450;-96
2021/05/16 03:38:59;;;;;;;13.35;10.75;;;5.70;99.90;;;;;;6171686;23;20387;-96
2021/05/16 03:41:37;;;;;;;12.77;10.10;;;5.70;99.90;;;;;;6168970;23;20884;-96
2021/05/16 03:44:11;;;;;;;11.00;7.80;;;5.70;99.90;;;;;;6165752;23;20454;-95
2021/05/16 03:46:42;;;;;;;12.97;10.20;;;5.70;99.90;;;;;;6160526;23;20442;-96
2021/05/16 03:49:10;;;;;;;15.25;11.25;;;5.70;99.90;;;;;;6160132;23;20470;-96
2021/05/16 03:51:52;;;;;;;15.45;11.25;;;5.70;99.90;;;;;;6160413;23;20963;-96
2021/05/16 03:54:26;;;;;;;17.75;12.43;;;5.70;99.90;;;;;;6159893;23;20398;-95
2021/05/16 03:57:04;;;;;;;26.63;13.15;;;5.70;99.90;;;;;;6168537;23;20398;-95
2021/05/16 03:59:53;;;;;;;20.45;13.70;;;5.70;99.90;;;;;;6219663;23;20383;-95
2021/05/16 04:02:52;;;;;;;20.50;12.93;;;5.70;99.90;;;;;;6222213;23;21009;-96
2021/05/16 04:05:26;;;;;;;25.33;14.38;;;5.70;99.90;;;;;;6106426;23;20397;-96
2021/05/16 04:08:08;;;;;;;20.67;13.50;;;5.70;99.90;;;;;;6053181;23;20777;-95
2021/05/16 04:10:49;;;;;;;20.50;14.25;;;5.70;99.90;;;;;;6054164;23;20397;-96
2021/05/16 04:16:25;;;;;;;22.77;14.30;;;5.70;99.90;;;;;;6286012;22;20368;-96
2021/05/16 04:19:05;;;;;;;24.33;14.23;;;5.70;99.90;;;;;;6235002;23;20389;-96
2021/05/16 04:21:57;;;;;;;22.60;14.67;;;5.70;99.90;;;;;;6268554;22;20434;-95
2021/05/16 04:24:44;;;;;;;22.88;15.05;;;5.70;99.90;;;;;;6279482;22;20374;-95
2021/05/16 04:30:57;;;;;;;24.58;15.05;;;5.70;99.90;;;;;;6309223;22;20377;-96
2021/05/16 04:33:28;;;;;;;120.25;19.58;;;5.70;99.90;;;;;;6301323;22;20401;-95
2021/05/16 04:36:20;;;;;;;23.63;15.00;;;5.70;99.90;;;;;;6304477;22;20370;-95
2021/05/16 04:39:06;;;;;;;21.83;14.70;;;5.70;99.90;;;;;;6279958;22;20370;-96
2021/05/16 04:42:40;;;;;;;22.17;14.15;;;5.80;99.90;;;;;;6282612;22;20367;-96
2021/05/16 04:45:23;;;;;;;32.17;15.05;;;5.70;99.90;;;;;;6298685;22;20378;-96
2021/05/16 04:48:35;;;;;;;24.58;15.43;;;5.80;99.90;;;;;;6287486;22;20392;-96
2021/05/16 04:51:53;;;;;;;23.10;15.82;;;5.80;99.90;;;;;;6319842;22;20366;-94
2021/05/16 04:54:47;;;;;;;21.77;14.90;;;5.70;99.90;;;;;;6291975;22;20379;-96
2021/05/16 04:57:28;;;;;;;21.27;14.13;;;5.80;99.90;;;;;;6266690;22;20392;-96
2021/05/16 05:03:04;;;;;;;23.20;13.60;;;5.70;99.90;;;;;;6316253;22;20376;-96
2021/05/16 05:09:32;;;;;;;15.73;11.47;;;5.80;99.90;;;;;;6255152;22;20397;-96
2021/05/16 05:12:15;;;;;;;15.57;11.10;;;6.00;99.90;;;;;;6241286;22;20390;-96
2021/05/16 05:20:17;;;;;;;9.38;7.22;;;5.90;99.90;;;;;;6331662;22;20514;-96
2021/05/16 05:23:19;;;;;;;11.52;6.90;;;5.90;99.90;;;;;;6278738;22;20431;-96
2021/05/16 05:25:59;;;;;;;10.55;6.60;;;5.90;99.90;;;;;;6268153;22;20384;-96
2021/05/16 05:28:42;;;;;;;9.37;5.10;;;5.90;99.90;;;;;;6268483;22;20448;-96
2021/05/16 05:31:19;;;;;;;6.57;3.30;;;5.90;99.90;;;;;;6264560;22;20394;-96
2021/05/16 05:34:09;;;;;;;5.25;3.28;;;6.00;99.90;;;;;;6292060;22;20396;-96
2021/05/16 05:36:52;;;;;;;7.43;2.95;;;6.10;99.90;;;;;;6265256;22;20379;-96
2021/05/16 05:46:19;;;;;;;7.07;2.30;;;6.20;99.90;;;;;;6332283;22;20341;-96
2021/05/16 05:48:49;;;;;;;4.25;1.48;;;6.20;99.90;;;;;;6291702;22;20457;-96
2021/05/16 05:51:24;;;;;;;8.95;2.10;;;6.30;99.90;;;;;;6291750;22;20386;-96
2021/05/16 05:53:58;;;;;;;7.10;1.92;;;6.30;99.90;;;;;;6289922;22;20398;-96
2021/05/16 05:56:52;;;;;;;9.50;1.98;;;6.50;99.90;;;;;;6308716;22;20407;-95
2021/05/16 05:59:21;;;;;;;7.47;1.90;;;6.60;99.90;;;;;;6285256;22;20407;-95
2021/05/16 06:01:51;;;;;;;7.57;2.03;;;6.60;99.90;;;;;;6282943;22;20391;-96
2021/05/16 06:04:18;;;;;;;5.88;1.83;;;6.60;99.90;;;;;;6287298;22;20790;-96
2021/05/16 06:06:48;;;;;;;8.13;2.30;;;6.60;99.90;;;;;;6290547;22;20364;-95
2021/05/16 06:09:18;;;;;;;4.15;1.80;;;6.60;99.90;;;;;;6300371;22;20382;-96
2021/05/16 06:11:48;;;;;;;7.78;2.30;;;6.60;99.90;;;;;;6296670;22;20397;-96
2021/05/16 06:14:21;;;;;;;4.88;1.98;;;6.70;99.90;;;;;;6259500;23;20432;-96
2021/05/16 06:16:48;;;;;;;8.20;1.88;;;6.70;99.90;;;;;;6257543;22;20687;-96
2021/05/16 06:19:24;;;;;;;3.75;1.70;;;6.70;99.90;;;;;;6259117;23;20450;-96
2021/05/16 06:24:34;;;;;;;6.77;1.53;;;7.90;99.90;;;;;;6319358;22;20379;-96
2021/05/16 06:27:02;;;;;;;5.20;1.60;;;9.10;99.90;;;;;;6293811;22;20439;-96
2021/05/16 06:29:29;;;;;;;5.88;1.23;;;9.20;99.90;;;;;;6318316;22;20395;-95
2021/05/16 06:31:56;;;;;;;5.50;1.48;;;9.70;99.90;;;;;;6340220;22;20388;-96
2021/05/16 06:34:24;;;;;;;6.55;1.38;;;9.60;99.90;;;;;;6316771;22;20458;-96
2021/05/16 06:36:55;;;;;;;5.70;1.50;;;9.80;99.90;;;;;;6316273;22;20386;-96
2021/05/16 06:39:32;;;;;;;4.32;1.23;;;9.70;99.90;;;;;;6343499;22;20382;-96
2021/05/16 06:42:02;;;;;;;4.90;1.45;;;9.70;99.90;;;;;;6321585;22;20402;-96
2021/05/16 06:44:44;;;;;;;;;;;;;;;;;;;;;
2021/05/16 06:48:02;;;;;;;;;;;;;;;;;;;;;
2021/05/16 06:51:20;;;;;;;6.00;1.30;;;10.30;99.90;;;;;;6286267;22;20398;-95
2021/05/16 06:54:38;;;;;;;5.50;1.65;;;10.70;99.90;;;;;;6347183;22;20390;-96
2021/05/16 07:00:41;;;;;;;3.90;1.10;;;10.70;99.90;;;;;;6334717;22;20454;-95
2021/05/16 07:03:35;;;;;;;6.07;1.30;;;10.90;99.90;;;;;;6132766;23;20389;-94
2021/05/16 07:06:36;;;;;;;5.22;1.35;;;10.80;99.90;;;;;;6111582;23;20391;-96
2021/05/16 07:09:06;;;;;;;5.78;1.60;;;10.80;99.90;;;;;;6124595;23;20393;-96
2021/05/16 07:11:59;;;;;;;6.10;1.40;;;10.20;99.90;;;;;;6112507;23;20475;-95
2021/05/16 07:14:48;;;;;;;5.88;1.20;;;9.50;99.90;;;;;;6093839;23;20439;-96
2021/05/16 07:17:58;;;;;;;8.43;1.75;;;9.60;99.90;;;;;;6160096;22;20387;-96
2021/05/16 07:21:21;;;;;;;7.07;1.67;;;9.60;99.90;;;;;;6277565;22;20412;-96
2021/05/16 07:25:00;;;;;;;;;;;;;;;;;;;;;
2021/05/16 07:27:42;;;;;;;4.03;1.30;;;8.90;99.90;;;;;;6196519;23;20402;-95
2021/05/16 07:30:23;;;;;;;5.18;1.25;;;8.80;99.90;;;;;;6194149;23;20459;-96
2021/05/16 07:33:07;;;;;;;4.63;1.20;;;8.90;99.90;;;;;;6208370;22;20390;-96
2021/05/16 07:36:23;;;;;;;6.60;1.17;;;9.40;99.90;;;;;;6308821;22;20393;-96
2021/05/16 07:40:13;;;;;;;8.00;1.60;;;9.80;99.90;;;;;;6290805;22;20386;-96
2021/05/16 07:43:00;;;;;;;6.05;1.23;;;10.60;99.90;;;;;;6145961;23;20397;-96
2021/05/16 07:46:13;;;;;;;6.20;1.63;;;10.90;99.90;;;;;;6177638;23;20393;-96
2021/05/16 07:49:46;;;;;;;8.53;1.60;;;10.60;99.90;;;;;;6130740;23;20376;-96
2021/05/16 07:53:08;;;;;;;3.75;1.30;;;10.10;99.90;;;;;;6223046;22;20490;-96
2021/05/16 07:56:18;;;;;;;5.10;1.40;;;10.10;99.90;;;;;;6212902;22;20606;31
2021/05/16 08:06:17;;;;;;;6.28;1.48;;;10.10;99.90;;;;;;6265605;22;20385;-96
2021/05/16 08:09:13;;;;;;;3.30;1.08;;;10.30;99.90;;;;;;6261312;22;20396;-95
2021/05/16 08:15:28;;;;;;;9.10;1.50;;;10.10;99.90;;;;;;6311909;22;20390;-96
2021/05/16 08:19:28;;;;;;;6.32;1.38;;;10.30;99.90;;;;;;6296473;22;22104;-96
2021/05/16 08:22:42;;;;;;;7.57;1.60;;;10.60;99.90;;;;;;6145173;23;20414;-96
2021/05/16 08:26:06;;;;;;;;;;;;;;;;;;;;;
2021/05/16 08:39:26;;;;;;;4.72;1.67;;;11.10;99.90;;;;;;6294465;22;20487;-96
2021/05/16 08:42:21;;;;;;;4.72;1.50;;;11.30;99.90;;;;;;6327524;22;20440;-96
2021/05/16 08:44:51;;;;;;;6.90;1.40;;;11.00;99.90;;;;;;6332412;22;20417;-96
2021/05/16 08:47:33;;;;;;;8.35;1.52;;;10.80;99.90;;;;;;6270446;22;20448;-96
2021/05/16 08:50:30;;;;;;;3.35;1.08;;;11.00;99.90;;;;;;6272614;22;20439;-95
2021/05/16 08:55:47;;;;;;;4.65;1.20;;;12.00;99.90;;;;;;6203644;22;20326;-96
2021/05/16 09:02:33;;;;;;;5.45;1.48;;;11.50;99.90;;;;;;6304956;22;20406;-96
2021/05/16 09:05:48;;;;;;;6.38;1.38;;;11.40;99.90;;;;;;6330649;22;20380;-96
2021/05/16 09:08:46;;;;;;;4.65;1.20;;;12.10;99.90;;;;;;6254291;22;20392;-96
2021/05/16 09:11:27;;;;;;;4.63;1.30;;;12.90;99.90;;;;;;6294961;22;20391;-96
2021/05/16 09:14:47;;;;;;;9.18;1.95;;;12.30;99.90;;;;;;6266892;22;20389;-96
2021/05/16 09:17:37;;;;;;;5.22;1.10;;;12.00;99.90;;;;;;6281665;22;20441;-96
2021/05/16 10:09:18;;;;;;;6.07;1.47;;;10.80;99.90;;;;;;6300861;22;20397;-96
2021/05/16 10:12:06;;;;;;;4.40;1.23;;;10.70;99.90;;;;;;6311877;22;20700;-96
2021/05/16 10:14:49;;;;;;;5.38;1.08;;;10.30;99.90;;;;;;6322304;22;20402;-96
2021/05/16 10:21:27;;;;;;;6.20;1.40;;;10.50;99.90;;;;;;6129184;23;20381;-96
2021/05/16 10:27:25;;;;;;;4.65;1.75;;;11.50;99.90;;;;;;6276910;22;21364;-96
2021/05/16 10:30:45;;;;;;;6.05;1.35;;;11.80;99.90;;;;;;6174447;23;20371;-96
2021/05/16 10:47:13;;;;;;;5.38;1.20;;;12.00;99.90;;;;;;6261081;22;20386;-96
2021/05/16 11:15:14;;;;;;;;;;;;;;;;;;;;;
2021/05/16 11:26:44;;;;;;;4.35;1.08;;;13.00;99.90;;;;;;6280013;22;20396;-96
2021/05/16 11:50:13;;;;;;;3.37;1.10;;;15.60;99.90;;;;;;6230845;23;20430;-96
2021/05/16 11:56:21;;;;;;;4.07;1.27;;;15.90;99.90;;;;;;6236512;22;20435;31
2021/05/16 12:07:09;;;;;;;3.85;1.00;;;16.20;97.60;;;;;;6261955;23;20386;-96
2021/05/16 12:16:50;;;;;;;3.45;1.10;;;14.10;99.90;;;;;;6265022;22;20382;-96
2021/05/16 12:20:07;;;;;;;2.90;1.15;;;14.30;99.90;;;;;;6266214;22;20449;-96
2021/05/16 12:30:15;;;;;;;5.70;1.05;;;15.10;99.90;;;;;;6257302;22;20372;-96
2021/05/16 13:12:26;;;;;;;3.50;0.93;;;15.50;93.40;;;;;;6203934;23;20465;-96
2021/05/16 13:15:30;;;;;;;5.53;1.52;;;15.10;95.70;;;;;;6161959;23;20405;-96
2021/05/16 13:18:57;;;;;;;5.13;0.90;;;15.90;96.20;;;;;;6114313;23;20370;-96
2021/05/16 13:21:52;;;;;;;3.83;1.20;;;17.10;92.40;;;;;;6113808;23;20414;-96
2021/05/16 13:24:49;;;;;;;5.95;1.00;;;17.80;90.80;;;;;;6129912;22;20398;-96
2021/05/16 13:28:27;;;;;;;4.93;1.50;;;18.70;86.30;;;;;;6306578;22;20395;-96
2021/05/16 13:35:43;;;;;;;4.70;1.45;;;19.00;78.70;;;;;;6295687;22;20387;-96
2021/05/16 13:47:09;;;;;;;5.97;1.95;;;18.90;78.20;;;;;;6263145;22;20378;-95
2021/05/16 13:49:51;;;;;;;5.88;1.90;;;18.40;72.40;;;;;;6244305;23;20397;-96
2021/05/16 14:27:45;;;;;;;3.73;0.93;;;20.40;77.80;;;;;;6309077;22;20370;-96
2021/05/16 14:30:14;;;;;;;3.22;1.00;;;21.40;78.90;;;;;;6334548;22;20701;-94
2021/05/16 14:32:41;;;;;;;4.22;1.10;;;21.90;70.10;;;;;;6332559;22;20386;-95
2021/05/16 14:35:09;;;;;;;5.10;1.20;;;21.50;73.80;;;;;;6332361;22;20452;-89
2021/05/16 14:37:36;;;;;;;3.58;1.10;;;21.60;67.20;;;;;;6332632;22;20728;-89
2021/05/16 14:40:04;;;;;;;4.88;1.10;;;21.50;66.70;;;;;;6333263;22;20957;-89
2021/05/16 14:42:31;;;;;;;4.63;1.80;;;20.60;71.90;;;;;;6333290;22;20379;-88
2021/05/16 14:44:58;;;;;;;3.77;1.40;;;19.20;74.80;;;;;;6333048;22;20374;-89
2021/05/16 14:47:25;;;;;;;4.15;1.52;;;18.20;77.70;;;;;;6332701;22;20386;-90
2021/05/16 14:49:52;;;;;;;6.65;1.85;;;18.00;77.90;;;;;;6333061;22;20367;-89
2021/05/16 14:52:20;;;;;;;6.57;1.50;;;18.30;81.80;;;;;;6332932;22;20469;-94
2021/05/16 14:54:47;;;;;;;4.70;1.45;;;18.70;79.30;;;;;;6333175;22;20944;-93
2021/05/16 14:57:14;;;;;;;5.63;1.20;;;18.70;79.20;;;;;;6332333;22;20382;-88
2021/05/16 14:59:41;;;;;;;4.55;1.30;;;18.90;78.20;;;;;;6336170;22;20376;-90
2021/05/16 15:02:09;;;;;;;5.35;1.40;;;19.30;79.40;;;;;;6333851;22;20783;-91
2021/05/16 15:04:36;;;;;;;4.35;1.30;;;19.00;77.90;;;;;;6332656;22;20375;-92
2021/05/16 15:07:03;;;;;;;6.07;1.30;;;18.90;78.30;;;;;;6333222;22;20369;-93
2021/05/16 15:09:36;;;;;;;5.80;1.42;;;18.60;78.90;;;;;;6309878;22;20462;-95
2021/05/16 15:12:03;;;;;;;7.50;1.30;;;18.00;81.50;;;;;;6333019;22;20378;-95
2021/05/16 15:14:32;;;;;;;6.60;1.50;;;18.10;81.30;;;;;;6334701;22;20402;-96
2021/05/16 15:17:02;;;;;;;5.43;1.45;;;18.30;82.20;;;;;;6337796;22;20379;-96
2021/05/16 15:19:33;;;;;;;6.00;1.70;;;18.40;79.10;;;;;;6332734;22;20383;-95
2021/05/16 15:22:00;;;;;;;4.13;1.30;;;18.20;80.10;;;;;;6333512;22;20378;-96
2021/05/16 15:24:29;;;;;;;5.55;1.42;;;18.00;80.70;;;;;;6333693;22;20386;-96
2021/05/16 15:26:58;;;;;;;4.72;1.48;;;17.30;82.60;;;;;;6332998;22;20383;-96
2021/05/16 15:29:26;;;;;;;5.82;1.50;;;16.50;85.90;;;;;;6333401;22;20466;-96
2021/05/16 15:31:53;;;;;;;5.93;1.50;;;16.10;88.30;;;;;;6332963;22;20383;-96
2021/05/16 15:34:20;;;;;;;5.28;1.48;;;15.70;90.70;;;;;;6333312;22;20473;-96
2021/05/16 15:36:48;;;;;;;4.75;1.45;;;15.50;91.10;;;;;;6332832;22;20414;-96
2021/05/16 15:39:15;;;;;;;5.38;1.20;;;15.40;93.10;;;;;;6332623;22;20382;-96
2021/05/16 15:41:42;;;;;;;6.00;1.70;;;15.50;93.00;;;;;;6333004;22;20402;-96
2021/05/16 15:44:09;;;;;;;6.80;2.00;;;15.50;94.70;;;;;;6332464;22;20383;-96
2021/05/16 15:46:36;;;;;;;6.28;2.20;;;15.40;94.60;;;;;;6332138;22;20410;-96
2021/05/16 15:49:04;;;;;;;5.15;1.90;;;15.20;93.60;;;;;;6333000;22;20485;-96
2021/05/16 15:51:31;;;;;;;9.13;3.40;;;15.10;93.90;;;;;;6332847;22;20700;-95
2021/05/16 15:53:59;;;;;;;8.05;1.98;;;14.90;94.00;;;;;;6333717;22;20395;-96
2021/05/16 15:56:26;;;;;;;9.25;2.20;;;14.90;95.60;;;;;;6333209;22;20378;-96
2021/05/16 15:58:54;;;;;;;9.10;2.43;;;14.70;95.50;;;;;;6332613;22;20388;-96
2021/05/16 16:01:21;;;;;;;7.22;2.05;;;14.50;96.50;;;;;;6332230;22;20470;-96
2021/05/16 16:03:50;;;;;;;7.18;1.95;;;14.40;97.90;;;;;;6332417;22;20417;-96
2021/05/16 16:06:18;;;;;;;8.38;2.40;;;14.40;97.60;;;;;;6335643;22;20864;-96
2021/05/16 16:08:45;;;;;;;5.40;1.70;;;14.50;99.90;;;;;;6360915;22;20366;-96
2021/05/16 16:11:12;;;;;;;5.75;1.85;;;14.60;98.00;;;;;;6360859;22;20410;-95
2021/05/16 16:13:40;;;;;;;6.30;1.30;;;14.70;99.20;;;;;;6351388;22;20385;-96
2021/05/16 16:16:07;;;;;;;5.68;1.33;;;14.60;98.50;;;;;;6345322;22;20394;-96
2021/05/16 16:18:34;;;;;;;6.57;1.23;;;14.50;99.20;;;;;;6335023;22;20910;-95
2021/05/16 16:21:01;;;;;;;3.28;1.25;;;14.50;99.90;;;;;;6332840;22;20382;-96
2021/05/16 16:23:28;;;;;;;6.30;1.45;;;14.20;98.40;;;;;;6333049;22;20933;-96
2021/05/16 16:25:57;;;;;;;5.03;1.48;;;14.10;99.90;;;;;;6333530;22;20414;-95
2021/05/16 16:28:29;;;;;;;5.77;1.40;;;14.00;99.80;;;;;;6347844;22;20437;-96
2021/05/16 16:30:59;;;;;;;7.50;1.47;;;13.90;99.90;;;;;;6360420;22;20377;-96
2021/05/16 16:33:27;;;;;;;4.07;1.30;;;13.90;99.90;;;;;;6359828;22;20396;-96
2021/05/16 16:35:56;;;;;;;5.68;1.40;;;13.80;99.90;;;;;;6359635;22;20382;-96
2021/05/16 16:38:25;;;;;;;8.65;1.58;;;13.60;99.90;;;;;;6356933;22;20362;-96
2021/05/16 16:40:52;;;;;;;4.90;1.40;;;13.50;99.90;;;;;;6353401;22;20386;-95
2021/05/16 16:43:19;;;;;;;4.82;1.42;;;13.50;99.90;;;;;;6332844;22;20387;-96
2021/05/16 16:45:46;;;;;;;7.50;1.50;;;13.50;99.90;;;;;;6332179;22;20382;-96
2021/05/16 16:48:13;;;;;;;5.32;1.40;;;13.50;99.90;;;;;;6332176;22;20403;-96
2021/05/16 16:50:40;;;;;;;7.38;1.50;;;13.50;99.90;;;;;;6332239;22;20496;-96
2021/05/16 16:53:09;;;;;;;6.45;1.38;;;13.50;99.90;;;;;;6332376;22;20406;-96
2021/05/16 16:55:37;;;;;;;6.00;1.30;;;13.50;99.90;;;;;;6332394;22;20398;-96
2021/05/16 16:58:05;;;;;;;6.20;1.37;;;13.50;99.90;;;;;;6332949;22;20449;-96
2021/05/16 17:00:36;;;;;;;6.93;1.33;;;13.40;99.90;;;;;;6332908;22;20387;-96
2021/05/16 17:03:03;;;;;;;7.43;1.45;;;13.30;99.90;;;;;;6331630;22;20385;-96
2021/05/16 17:05:30;;;;;;;5.53;1.45;;;13.40;99.90;;;;;;6332084;22;20379;-96
2021/05/16 17:08:04;;;;;;;4.63;1.20;;;13.30;99.90;;;;;;6332802;22;20406;-96
2021/05/16 17:10:31;;;;;;;4.97;1.60;;;13.20;99.90;;;;;;6334797;22;20389;-94
2021/05/16 17:17:25;;;;;;;5.97;1.60;;;12.90;99.90;;;;;;6225555;22;20782;-96
2021/05/16 20:27:10;;;;;;;8.13;2.30;;;8.80;99.90;;;;;;6334444;22;20411;-94
2021/05/16 20:29:58;;;;;;;4.43;1.70;;;8.70;99.90;;;;;;6331480;22;20384;-96
2021/05/16 20:33:02;;;;;;;6.78;1.88;;;8.60;99.90;;;;;;6335096;22;20384;-96
2021/05/16 23:36:57;;;;;;;5.22;1.50;;;8.00;99.90;;;;;;6327386;22;20394;-95
2021/05/16 23:39:59;;;;;;;3.60;1.40;;;7.90;99.90;;;;;;6330096;22;20421;-95
2021/05/16 23:42:35;;;;;;;3.72;1.38;;;8.00;99.90;;;;;;6305763;22;20724;-94
2021/05/16 23:45:21;;;;;;;4.50;1.70;;;7.80;99.90;;;;;;6307452;22;20373;-95
2021/05/16 23:48:03;;;;;;;2.88;1.35;;;7.70;99.90;;;;;;6306466;22;20444;-96
2021/05/16 23:50:44;;;;;;;3.35;1.30;;;7.80;99.90;;;;;;6301945;22;20406;-95
2021/05/16 23:53:20;;;;;;;4.10;1.45;;;7.80;99.90;;;;;;6321548;22;20443;-96
2021/05/16 23:56:05;;;;;;;2.83;1.40;;;7.70;99.90;;;;;;6309648;22;20756;-96
2021/05/16 23:58:35;;;;;;;5.32;1.60;;;7.70;99.90;;;;;;6287139;22;20385;-96
